createdAt,value
2023-03-01T00:01:22.618Z,101620.69
2023-03-01T00:05:24.182Z,101608.41
2023-03-01T00:09:25.822Z,101618.09
2023-03-01T00:13:27.409Z,101609.09
2023-03-01T00:17:29.614Z,101605.69
2023-03-01T00:21:31.454Z,101602.16
2023-03-01T00:25:33.114Z,101605.16
2023-03-01T00:29:34.629Z,101616.00
2023-03-01T00:33:36.442Z,101621.06
2023-03-01T00:37:38.102Z,101613.84
2023-03-01T00:41:41.037Z,101619.63
2023-03-01T00:45:43.691Z,101622.28
2023-03-01T00:49:45.284Z,101626.06
2023-03-01T00:53:47.411Z,101629.81
2023-03-01T00:57:49.068Z,101627.88
2023-03-01T01:01:50.735Z,101630.75
2023-03-01T01:05:53.244Z,101628.41
2023-03-01T01:09:54.810Z,101625.47
2023-03-01T01:13:58.858Z,101613.72
2023-03-01T01:18:00.445Z,101614.16
2023-03-01T01:22:03.268Z,101610.59
2023-03-01T01:26:19.775Z,101605.69
2023-03-01T01:30:21.358Z,101598.47
2023-03-01T01:34:25.714Z,101591.69
2023-03-01T01:38:27.680Z,101580.19
2023-03-01T01:42:29.319Z,101576.47
2023-03-01T01:46:36.540Z,101573.22
2023-03-01T01:50:41.082Z,101566.69
2023-03-01T01:54:48.821Z,101569.47
2023-03-01T01:58:51.311Z,101559.50
2023-03-01T02:02:58.633Z,101561.91
2023-03-01T02:07:14.874Z,101553.91
2023-03-01T02:11:17.104Z,101547.72
2023-03-01T02:15:18.671Z,101548.34
2023-03-01T02:19:48.616Z,101541.09
2023-03-01T02:23:50.233Z,101539.19
2023-03-01T02:28:13.442Z,101535.13
2023-03-01T02:32:16.409Z,101530.16
2023-03-01T02:36:24.475Z,101532.69
2023-03-01T02:40:26.099Z,101526.13
2023-03-01T02:44:27.663Z,101530.59
2023-03-01T02:48:29.203Z,101513.72
2023-03-01T02:52:46.032Z,101509.72
2023-03-01T02:56:50.979Z,101502.34
2023-03-01T03:00:55.396Z,101515.00
2023-03-01T03:04:57.267Z,101506.41
2023-03-01T03:08:59.248Z,101492.47
2023-03-01T03:13:06.661Z,101493.56
2023-03-01T03:17:08.320Z,101491.50
2023-03-01T03:21:11.375Z,101486.47
2023-03-01T03:25:13.054Z,101485.25
2023-03-01T03:29:14.946Z,101484.03
2023-03-01T03:33:16.482Z,101479.00
2023-03-01T03:37:39.339Z,101481.69
2023-03-01T03:41:40.857Z,101476.75
2023-03-01T03:45:44.390Z,101473.84
2023-03-01T03:49:46.059Z,101471.31
2023-03-01T03:53:48.570Z,101470.75
2023-03-01T03:57:52.408Z,101464.25
2023-03-01T04:01:54.158Z,101463.00
2023-03-01T04:05:58.914Z,101453.25
2023-03-01T04:10:00.432Z,101458.75
2023-03-01T04:14:01.968Z,101457.31
2023-03-01T04:18:04.282Z,101456.28
2023-03-01T04:22:10.247Z,101458.78
2023-03-01T04:26:11.879Z,101456.53
2023-03-01T04:30:13.628Z,101462.00
2023-03-01T04:34:15.243Z,101463.22
2023-03-01T04:38:18.577Z,101459.09
2023-03-01T04:42:20.298Z,101466.25
2023-03-01T04:46:29.346Z,101465.66
2023-03-01T04:50:31.735Z,101465.06
2023-03-01T04:54:34.856Z,101457.19
2023-03-01T04:58:36.541Z,101462.66
2023-03-01T05:02:38.081Z,101468.25
2023-03-01T05:06:40.382Z,101458.47
2023-03-01T05:10:42.847Z,101461.75
2023-03-01T05:14:44.355Z,101455.25
2023-03-01T05:18:47.008Z,101455.94
2023-03-01T05:22:48.628Z,101459.06
2023-03-01T05:26:50.739Z,101452.34
2023-03-01T05:30:52.807Z,101455.56
2023-03-01T05:34:56.080Z,101461.00
2023-03-01T05:38:57.674Z,101453.44
2023-03-01T05:42:59.306Z,101447.84
2023-03-01T05:47:01.084Z,101449.03
2023-03-01T05:51:12.615Z,101457.16
2023-03-01T05:55:22.006Z,101450.03
2023-03-01T05:59:26.537Z,101455.22
2023-03-01T06:03:33.356Z,101461.56
2023-03-01T06:07:39.887Z,101449.16
2023-03-01T06:11:45.009Z,101451.84
2023-03-01T06:15:54.311Z,101446.41
2023-03-01T06:19:56.093Z,101451.56
2023-03-01T06:23:59.834Z,101456.16
2023-03-01T06:28:09.254Z,101451.72
2023-03-01T06:32:19.592Z,101456.31
2023-03-01T06:36:22.997Z,101459.72
2023-03-01T06:40:33.864Z,101456.16
2023-03-01T06:44:43.266Z,101444.72
2023-03-01T06:48:45.227Z,101448.66
2023-03-01T06:52:54.438Z,101450.13
2023-03-01T06:57:06.686Z,101450.06
2023-03-01T07:01:09.117Z,101449.25
2023-03-01T07:05:10.723Z,101445.38
2023-03-01T07:09:12.368Z,101444.16
2023-03-01T07:13:13.999Z,101437.00
2023-03-01T07:17:15.559Z,101429.84
2023-03-01T07:21:17.546Z,101438.84
2023-03-01T07:25:19.197Z,101434.38
2023-03-01T07:29:20.776Z,101433.25
2023-03-01T07:33:22.448Z,101424.84
2023-03-01T07:37:24.285Z,101408.63
2023-03-01T07:41:26.045Z,101412.44
2023-03-01T07:45:28.343Z,101411.31
2023-03-01T07:49:30.084Z,101407.72
2023-03-01T07:53:32.274Z,101403.44
2023-03-01T07:57:33.993Z,101394.03
2023-03-01T08:01:35.665Z,101394.69
2023-03-01T08:05:37.204Z,101396.22
2023-03-01T08:09:38.963Z,101394.88
2023-03-01T08:13:40.612Z,101386.44
2023-03-01T08:17:42.413Z,101386.19
2023-03-01T08:21:44.065Z,101380.91
2023-03-01T08:25:45.563Z,101377.63
2023-03-01T08:29:47.033Z,101377.66
2023-03-01T08:33:55.855Z,101370.81
2023-03-01T08:37:57.571Z,101369.16
2023-03-01T08:41:59.367Z,101356.53
2023-03-01T08:46:00.985Z,101357.66
2023-03-01T08:50:02.630Z,101364.22
2023-03-01T08:54:11.960Z,101349.13
2023-03-01T08:58:13.635Z,101354.66
2023-03-01T09:02:18.352Z,101348.66
2023-03-01T09:06:19.982Z,101351.16
2023-03-01T09:10:21.686Z,101337.03
2023-03-01T09:14:23.433Z,101339.03
2023-03-01T09:18:25.112Z,101335.63
2023-03-01T09:22:27.002Z,101335.56
2023-03-01T09:26:28.656Z,101330.97
2023-03-01T09:30:30.696Z,101325.06
2023-03-01T09:34:32.360Z,101320.69
2023-03-01T09:38:34.792Z,101320.41
2023-03-01T09:42:46.530Z,101327.91
2023-03-01T09:46:48.431Z,101322.03
2023-03-01T09:50:51.318Z,101319.94
2023-03-01T09:54:55.899Z,101319.31
2023-03-01T09:59:12.438Z,101318.00
2023-03-01T10:03:38.157Z,101315.25
2023-03-01T10:08:00.133Z,101313.63
2023-03-01T10:12:03.569Z,101303.34
2023-03-01T10:16:14.446Z,101294.84
2023-03-01T10:20:19.185Z,101287.94
2023-03-01T10:24:22.725Z,101277.44
2023-03-01T10:29:02.844Z,101274.44
2023-03-01T10:33:10.065Z,101270.56
2023-03-01T10:37:17.135Z,101263.81
2023-03-01T10:41:19.168Z,101253.63
2023-03-01T10:45:27.040Z,101252.91
2023-03-01T10:49:28.957Z,101231.84
2023-03-01T10:53:39.353Z,101244.41
2023-03-01T10:57:43.036Z,101234.66
2023-03-01T11:01:44.768Z,101220.59
2023-03-01T11:06:12.579Z,101218.44
2023-03-01T11:10:36.859Z,101205.06
2023-03-01T11:14:41.802Z,101197.34
2023-03-01T11:18:48.034Z,101188.88
2023-03-01T11:22:54.887Z,101189.44
2023-03-01T11:26:57.219Z,101174.81
2023-03-01T11:31:13.150Z,101167.78
2023-03-01T11:35:22.523Z,101152.50
2023-03-01T11:39:52.068Z,101151.69
2023-03-01T11:44:09.874Z,101149.22
2023-03-01T11:48:23.306Z,101142.41
2023-03-01T11:52:43.115Z,101132.50
2023-03-01T11:56:49.766Z,101131.38
2023-03-01T12:01:10.921Z,101126.94
2023-03-01T12:05:47.117Z,101113.78
2023-03-01T12:10:06.934Z,101098.44
2023-03-01T12:14:23.004Z,101092.44
2023-03-01T12:19:07.143Z,101076.47
2023-03-01T12:23:36.527Z,101067.72
2023-03-01T12:27:56.649Z,101044.06
2023-03-01T12:32:26.817Z,101052.38
2023-03-01T12:36:50.312Z,101049.94
2023-03-01T12:41:05.165Z,101033.41
2023-03-01T12:45:12.976Z,101035.13
2023-03-01T12:49:20.152Z,101026.22
2023-03-01T12:53:35.699Z,101017.16
2023-03-01T12:57:50.883Z,101006.16
2023-03-01T13:02:14.965Z,100990.06
2023-03-01T13:06:18.740Z,100988.22
2023-03-01T13:10:24.261Z,100994.72
2023-03-01T13:14:25.730Z,100990.47
2023-03-01T13:18:30.370Z,100987.41
2023-03-01T13:22:35.497Z,100974.31
2023-03-01T13:27:18.512Z,100969.44
2023-03-01T13:31:20.141Z,100965.91
2023-03-01T13:35:21.777Z,100956.22
2023-03-01T13:39:40.833Z,100952.16
2023-03-01T13:43:44.643Z,100942.31
2023-03-01T13:47:49.939Z,100946.91
2023-03-01T13:51:52.766Z,100948.97
2023-03-01T13:56:20.411Z,100942.38
2023-03-01T14:00:28.222Z,100928.41
2023-03-01T14:04:33.317Z,100926.72
2023-03-01T14:08:41.409Z,100922.75
2023-03-01T14:13:11.333Z,100915.41
2023-03-01T14:17:41.683Z,100917.38
2023-03-01T14:21:43.855Z,100917.69
2023-03-01T14:25:51.062Z,100914.59
2023-03-01T14:30:11.159Z,100903.81
2023-03-01T14:34:25.206Z,100906.22
2023-03-01T14:38:35.787Z,100899.91
2023-03-01T14:42:37.883Z,100901.00
2023-03-01T14:46:42.064Z,100908.81
2023-03-01T14:50:45.209Z,100902.03
2023-03-01T14:54:52.691Z,100898.75
2023-03-01T14:59:00.394Z,100891.59
2023-03-01T15:03:27.891Z,100889.28
2023-03-01T15:07:33.282Z,100889.38
2023-03-01T15:11:36.851Z,100894.66
2023-03-01T15:16:15.948Z,100907.06
2023-03-01T15:20:22.519Z,100906.69
2023-03-01T15:24:26.400Z,100920.41
2023-03-01T15:28:31.751Z,100914.03
2023-03-01T15:32:35.721Z,100928.84
2023-03-01T15:36:40.008Z,100933.06
2023-03-01T15:40:50.657Z,100948.59
2023-03-01T15:45:12.427Z,100942.00
2023-03-01T15:49:54.046Z,100943.91
2023-03-01T15:53:59.225Z,100943.00
2023-03-01T15:58:14.142Z,100954.38
2023-03-01T16:02:16.514Z,100956.94
2023-03-01T16:06:18.180Z,100957.16
2023-03-01T16:10:20.667Z,100959.97
2023-03-01T16:14:22.849Z,100948.41
2023-03-01T16:18:25.288Z,100946.28
2023-03-01T16:22:28.140Z,100951.84
2023-03-01T16:26:30.041Z,100944.47
2023-03-01T16:30:32.006Z,100946.41
2023-03-01T16:34:33.594Z,100943.16
2023-03-01T16:38:35.706Z,100951.06
2023-03-01T16:42:39.451Z,100945.50
2023-03-01T16:46:43.380Z,100952.63
2023-03-01T16:50:45.024Z,100960.63
2023-03-01T16:54:46.619Z,100963.56
2023-03-01T16:58:48.341Z,100960.50
2023-03-01T17:02:49.957Z,100955.78
2023-03-01T17:06:51.521Z,100945.97
2023-03-01T17:10:53.064Z,100942.03
2023-03-01T17:14:54.980Z,100935.66
2023-03-01T17:18:56.532Z,100944.59
2023-03-01T17:22:58.623Z,100945.03
2023-03-01T17:27:00.279Z,100945.31
2023-03-01T17:31:03.625Z,100935.53
2023-03-01T17:35:06.027Z,100933.47
2023-03-01T17:39:07.529Z,100939.97
2023-03-01T17:43:09.816Z,100940.50
2023-03-01T17:47:11.545Z,100940.31
2023-03-01T17:51:13.154Z,100951.09
2023-03-01T17:55:14.737Z,100960.34
2023-03-01T17:59:19.048Z,100955.03
2023-03-01T18:03:21.759Z,100959.78
2023-03-01T18:07:23.415Z,100965.59
2023-03-01T18:11:25.692Z,100966.91
2023-03-01T18:15:27.484Z,100976.81
2023-03-01T18:19:29.136Z,100987.59
2023-03-01T18:23:32.382Z,100984.59
2023-03-01T18:27:34.035Z,101000.28
2023-03-01T18:31:35.664Z,100990.53
2023-03-01T18:35:38.227Z,100990.88
2023-03-01T18:39:41.571Z,100986.88
2023-03-01T18:43:43.299Z,100982.13
2023-03-01T18:47:45.152Z,100989.22
2023-03-01T18:51:46.760Z,100980.44
2023-03-01T18:55:48.478Z,100978.50
2023-03-01T18:59:50.052Z,100975.59
2023-03-01T19:03:52.753Z,100992.41
2023-03-01T19:07:54.381Z,100970.91
2023-03-01T19:11:58.782Z,100980.00
2023-03-01T19:16:09.734Z,100985.97
2023-03-01T19:20:12.650Z,100971.91
2023-03-01T19:24:14.212Z,100968.88
2023-03-01T19:28:15.746Z,100980.44
2023-03-01T19:32:17.422Z,100975.25
2023-03-01T19:36:21.313Z,100976.34
2023-03-01T19:40:22.927Z,100976.59
2023-03-01T19:44:25.109Z,100969.78
2023-03-01T19:48:27.133Z,100971.53
2023-03-01T19:52:28.766Z,100968.91
2023-03-01T19:56:31.448Z,100972.59
2023-03-01T20:00:34.390Z,100972.22
2023-03-01T20:04:36.001Z,100972.09
2023-03-01T20:08:37.760Z,100973.28
2023-03-01T20:12:39.552Z,100969.66
2023-03-01T20:16:41.595Z,100970.22
2023-03-01T20:20:43.265Z,100979.44
2023-03-01T20:24:44.998Z,100973.84
2023-03-01T20:28:48.656Z,100979.28
2023-03-01T20:32:50.251Z,100986.25
2023-03-01T20:36:51.947Z,100979.31
2023-03-01T20:41:05.179Z,100989.59
2023-03-01T20:45:07.403Z,100979.31
2023-03-01T20:49:10.553Z,100975.78
2023-03-01T20:53:12.272Z,100972.97
2023-03-01T20:57:13.899Z,100972.56
2023-03-01T21:01:18.588Z,100967.38
2023-03-01T21:05:20.416Z,100974.13
2023-03-01T21:09:22.048Z,100972.06
2023-03-01T21:13:24.843Z,100972.41
2023-03-01T21:17:26.723Z,100973.44
2023-03-01T21:21:28.526Z,100972.06
2023-03-01T21:25:35.021Z,100963.25
2023-03-01T21:29:38.429Z,100955.03
2023-03-01T21:33:43.516Z,100965.16
2023-03-01T21:37:45.197Z,100952.16
2023-03-01T21:41:49.741Z,100946.78
2023-03-01T21:45:51.563Z,100948.56
2023-03-01T21:49:53.204Z,100943.47
2023-03-01T21:53:55.667Z,100950.63
2023-03-01T21:57:57.340Z,100941.88
2023-03-01T22:01:58.937Z,100936.47
2023-03-01T22:06:02.155Z,100938.69
2023-03-01T22:10:03.853Z,100933.41
2023-03-01T22:14:06.142Z,100932.13
2023-03-01T22:18:08.413Z,100925.19
2023-03-01T22:22:09.904Z,100941.72
2023-03-01T22:26:27.607Z,100933.78
2023-03-01T22:30:29.170Z,100945.13
2023-03-01T22:34:30.799Z,100936.53
2023-03-01T22:38:32.363Z,100937.13
2023-03-01T22:42:34.181Z,100945.84
2023-03-01T22:46:35.920Z,100943.63
2023-03-01T22:50:37.573Z,100941.22
2023-03-01T22:54:39.293Z,100941.00
2023-03-01T22:58:41.394Z,100941.22
2023-03-01T23:02:43.349Z,100936.03
2023-03-01T23:06:53.653Z,100934.13
2023-03-01T23:10:55.253Z,100939.44
2023-03-01T23:14:57.590Z,100940.97
2023-03-01T23:18:59.153Z,100948.00
2023-03-01T23:23:01.518Z,100941.19
2023-03-01T23:27:04.370Z,100943.41
2023-03-01T23:31:08.411Z,100951.72
2023-03-01T23:35:10.590Z,100938.78
2023-03-01T23:39:13.975Z,100945.03
2023-03-01T23:43:15.936Z,100928.06
2023-03-01T23:47:17.499Z,100935.91
2023-03-01T23:51:19.499Z,100931.38
2023-03-01T23:55:22.674Z,100932.69
2023-03-01T23:59:24.429Z,100937.09
